Soledade, Brazil
Current Conditions -  °F | °C
As of 9:00 AM on Thursday 23 Oct 2014 (Local Time) from SBPF Reporting Station
Clear Clear  
Wind Chill: 57°   Ceiling: Unl
Heat Index: 57°   Visibility: 6mi
Dew Point: 52°   Wind: 12mph
Humidity: 82%   Direction: 50°NE
Pressure: 30.12"   Gusts: NA
Location:  28.82°S, 52.51°W
Report Text: SBPF 231100Z 05010KT CAVOK 14/11 Q1020
Loading
Personal Weather Stations






























Interactive Weather Map
Tropical Storm Tracking
New forecast layout! Learn more

10-Day Weather Forecast

Advertisements
Track Severe Weather on mobile